createdAt,value
2022-10-18T00:01:21.679Z,17.50
2022-10-18T00:04:08.116Z,17.50
2022-10-18T00:06:54.602Z,17.44
2022-10-18T00:09:43.358Z,17.44
2022-10-18T00:12:32.875Z,17.38
2022-10-18T00:15:19.286Z,17.31
2022-10-18T00:18:05.658Z,17.25
2022-10-18T00:21:02.360Z,17.25
2022-10-18T00:23:50.492Z,17.19
2022-10-18T00:26:36.737Z,17.13
2022-10-18T00:29:23.240Z,17.06
2022-10-18T00:32:11.547Z,17.00
2022-10-18T00:34:59.582Z,16.88
2022-10-18T00:37:45.747Z,16.88
2022-10-18T00:40:35.215Z,16.88
2022-10-18T00:43:21.156Z,16.88
2022-10-18T00:46:07.711Z,16.81
2022-10-18T00:48:56.923Z,16.75
2022-10-18T00:51:52.992Z,16.69
2022-10-18T00:54:43.447Z,16.63
2022-10-18T00:57:29.786Z,16.63
2022-10-18T01:00:16.749Z,16.56
2022-10-18T01:03:02.972Z,16.50
2022-10-18T01:05:49.238Z,16.50
2022-10-18T01:09:29.193Z,16.50
2022-10-18T01:12:38.356Z,16.50
2022-10-18T01:15:34.246Z,16.44
2022-10-18T01:18:52.998Z,16.44
2022-10-18T01:22:18.610Z,16.44
2022-10-18T01:26:20.553Z,16.44
2022-10-18T01:29:46.838Z,16.44
2022-10-18T01:32:43.994Z,16.44
2022-10-18T01:35:38.282Z,16.44
2022-10-18T01:38:26.051Z,16.38
2022-10-18T01:41:15.815Z,16.38
2022-10-18T01:44:06.595Z,16.31
2022-10-18T01:46:55.787Z,16.19
2022-10-18T01:49:42.146Z,16.13
2022-10-18T01:52:28.794Z,16.06
2022-10-18T01:55:16.303Z,16.00
2022-10-18T01:58:37.881Z,15.94
2022-10-18T02:01:45.534Z,15.88
2022-10-18T02:04:48.445Z,15.81
2022-10-18T02:08:05.344Z,15.81
2022-10-18T02:11:11.817Z,15.75
2022-10-18T02:14:07.027Z,15.81
2022-10-18T02:17:00.633Z,15.75
2022-10-18T02:19:53.528Z,15.75
2022-10-18T02:22:45.230Z,15.75
2022-10-18T02:25:33.496Z,15.75
2022-10-18T02:28:21.033Z,15.75
2022-10-18T02:31:43.662Z,15.69
2022-10-18T02:34:38.091Z,15.69
2022-10-18T02:37:31.052Z,15.63
2022-10-18T02:40:17.822Z,15.63
2022-10-18T02:43:05.957Z,15.63
2022-10-18T02:45:52.790Z,15.63
2022-10-18T02:48:39.058Z,15.56
2022-10-18T02:51:25.638Z,15.50
2022-10-18T02:54:11.918Z,15.44
2022-10-18T02:56:58.638Z,15.44
2022-10-18T02:59:44.853Z,15.38
2022-10-18T03:02:31.436Z,15.38
2022-10-18T03:05:17.811Z,15.38
2022-10-18T03:08:04.534Z,15.38
2022-10-18T03:10:50.961Z,15.38
2022-10-18T03:13:37.462Z,15.44
2022-10-18T03:16:25.296Z,15.44
2022-10-18T03:19:11.865Z,15.38
2022-10-18T03:21:57.959Z,15.38
2022-10-18T03:24:47.274Z,15.38
2022-10-18T03:27:33.869Z,15.38
2022-10-18T03:30:20.465Z,15.38
2022-10-18T03:33:06.819Z,15.38
2022-10-18T03:35:53.132Z,15.38
2022-10-18T03:38:39.466Z,15.38
2022-10-18T03:41:25.681Z,15.38
2022-10-18T03:44:12.133Z,15.38
2022-10-18T03:47:00.574Z,15.31
2022-10-18T03:49:51.989Z,15.31
2022-10-18T03:52:41.294Z,15.25
2022-10-18T03:55:27.704Z,15.25
2022-10-18T03:58:14.000Z,15.25
2022-10-18T04:01:00.099Z,15.25
2022-10-18T04:03:46.388Z,15.19
2022-10-18T04:06:32.847Z,15.19
2022-10-18T04:09:19.083Z,15.19
2022-10-18T04:12:05.502Z,15.19
2022-10-18T04:14:51.994Z,15.13
2022-10-18T04:17:38.303Z,15.06
2022-10-18T04:20:25.393Z,15.00
2022-10-18T04:23:11.754Z,14.94
2022-10-18T04:25:57.753Z,14.88
2022-10-18T04:28:44.439Z,14.88
2022-10-18T04:31:30.717Z,14.88
2022-10-18T04:34:17.306Z,14.94
2022-10-18T04:37:03.847Z,14.94
2022-10-18T04:39:52.794Z,15.00
2022-10-18T04:42:40.199Z,15.06
2022-10-18T04:45:26.859Z,15.06
2022-10-18T04:48:14.689Z,15.06
2022-10-18T04:51:01.190Z,15.00
2022-10-18T04:53:47.838Z,15.00
2022-10-18T04:56:34.527Z,15.06
2022-10-18T04:59:21.250Z,15.06
2022-10-18T05:02:07.786Z,15.00
2022-10-18T05:04:53.939Z,15.00
2022-10-18T05:07:40.471Z,15.00
2022-10-18T05:10:26.910Z,15.00
2022-10-18T05:13:13.298Z,15.06
2022-10-18T05:16:00.170Z,15.00
2022-10-18T05:18:46.525Z,14.94
2022-10-18T05:21:33.497Z,15.00
2022-10-18T05:24:21.916Z,14.94
2022-10-18T05:27:10.635Z,15.00
2022-10-18T05:29:58.871Z,15.00
2022-10-18T05:32:49.687Z,15.00
2022-10-18T05:35:36.379Z,15.00
2022-10-18T05:38:23.059Z,15.06
2022-10-18T05:41:09.830Z,15.06
2022-10-18T05:43:55.933Z,15.06
2022-10-18T05:46:42.449Z,15.06
2022-10-18T05:49:29.006Z,15.06
2022-10-18T05:52:16.538Z,15.06
2022-10-18T05:55:03.511Z,15.06
2022-10-18T05:57:51.239Z,15.06
2022-10-18T06:00:38.143Z,15.06
2022-10-18T06:03:24.671Z,15.06
2022-10-18T06:06:13.328Z,15.06
2022-10-18T06:08:59.803Z,15.13
2022-10-18T06:11:46.083Z,15.13
2022-10-18T06:14:32.762Z,15.13
2022-10-18T06:17:19.030Z,15.19
2022-10-18T06:20:06.933Z,15.25
2022-10-18T06:22:53.367Z,15.31
2022-10-18T06:25:39.864Z,15.38
2022-10-18T06:28:27.186Z,15.31
2022-10-18T06:31:15.354Z,15.31
2022-10-18T06:34:02.089Z,15.31
2022-10-18T06:36:48.124Z,15.44
2022-10-18T06:39:34.303Z,15.56
2022-10-18T06:42:22.676Z,15.56
2022-10-18T06:45:09.496Z,15.50
2022-10-18T06:47:57.973Z,15.38
2022-10-18T06:50:56.384Z,15.38
2022-10-18T06:53:44.489Z,15.25
2022-10-18T06:56:39.250Z,15.31
2022-10-18T06:59:28.887Z,15.31
2022-10-18T07:02:17.690Z,15.31
2022-10-18T07:05:04.370Z,15.31
2022-10-18T07:07:54.228Z,15.44
2022-10-18T07:10:49.633Z,15.63
2022-10-18T07:13:35.881Z,15.81
2022-10-18T07:16:22.334Z,16.00
2022-10-18T07:19:08.537Z,16.19
2022-10-18T07:21:55.119Z,16.31
2022-10-18T07:24:41.511Z,16.44
2022-10-18T07:27:27.536Z,16.31
2022-10-18T07:30:14.154Z,16.25
2022-10-18T07:33:00.313Z,16.50
2022-10-18T07:35:47.422Z,16.69
2022-10-18T07:38:34.722Z,16.63
2022-10-18T07:41:21.807Z,16.63
2022-10-18T07:44:08.561Z,16.63
2022-10-18T07:46:54.897Z,16.63
2022-10-18T07:49:40.959Z,16.63
2022-10-18T07:52:27.102Z,16.38
2022-10-18T07:55:13.760Z,16.19
2022-10-18T07:58:00.684Z,16.13
2022-10-18T08:00:47.031Z,15.94
2022-10-18T08:03:37.056Z,16.06
2022-10-18T08:06:23.294Z,16.13
2022-10-18T08:09:09.792Z,16.00
2022-10-18T08:11:56.106Z,15.94
2022-10-18T08:14:42.584Z,16.00
2022-10-18T08:17:28.735Z,16.13
2022-10-18T08:20:29.933Z,16.38
2022-10-18T08:23:17.411Z,16.69
2022-10-18T08:26:08.108Z,16.94
2022-10-18T08:29:10.221Z,17.44
2022-10-18T08:32:00.497Z,17.75
2022-10-18T08:34:46.837Z,18.88
2022-10-18T08:37:33.858Z,20.31
2022-10-18T08:40:20.835Z,21.25
2022-10-18T08:43:22.007Z,20.75
2022-10-18T08:46:12.286Z,20.06
2022-10-18T08:49:00.632Z,21.25
2022-10-18T08:51:49.461Z,24.56
2022-10-18T08:54:49.443Z,27.25
2022-10-18T08:57:35.826Z,28.19
2022-10-18T09:00:26.331Z,28.06
2022-10-18T09:03:21.582Z,26.19
2022-10-18T09:06:42.701Z,25.13
2022-10-18T09:10:25.604Z,24.56
2022-10-18T09:13:37.538Z,24.81
2022-10-18T09:17:02.269Z,25.06
2022-10-18T09:20:12.911Z,26.38
2022-10-18T09:23:30.000Z,28.81
2022-10-18T09:26:22.525Z,28.88
2022-10-18T09:32:22.181Z,26.19
2022-10-18T09:35:19.478Z,26.06
2022-10-18T09:38:10.858Z,26.25
2022-10-18T09:41:09.151Z,26.50
2022-10-18T09:44:15.080Z,25.44
2022-10-18T09:47:34.426Z,24.88
2022-10-18T09:50:54.107Z,24.69
2022-10-18T09:53:45.332Z,26.94
2022-10-18T09:56:57.514Z,29.63
2022-10-18T09:59:48.627Z,29.88
2022-10-18T10:02:35.049Z,32.13
2022-10-18T10:05:21.323Z,33.81
2022-10-18T10:08:08.102Z,33.88
2022-10-18T10:10:54.300Z,35.13
2022-10-18T10:13:40.548Z,34.56
2022-10-18T10:16:27.483Z,34.19
2022-10-18T10:19:34.368Z,34.94
2022-10-18T10:22:33.533Z,34.44
2022-10-18T10:25:35.533Z,30.88
2022-10-18T10:28:28.137Z,27.81
2022-10-18T10:31:23.699Z,26.50
2022-10-18T10:34:12.781Z,26.25
2022-10-18T10:36:59.085Z,26.00
2022-10-18T10:40:00.684Z,24.75
2022-10-18T10:43:33.082Z,24.63
2022-10-18T10:46:22.681Z,25.44
2022-10-18T10:49:41.189Z,24.69
2022-10-18T10:52:29.158Z,23.44
2022-10-18T10:55:34.772Z,22.38
2022-10-18T10:58:22.656Z,21.31
2022-10-18T11:01:22.278Z,20.50
2022-10-18T11:04:30.314Z,20.19
2022-10-18T11:07:19.737Z,20.19
2022-10-18T11:10:09.054Z,20.06
2022-10-18T11:13:02.084Z,19.88
2022-10-18T11:16:05.221Z,19.56
2022-10-18T11:18:54.028Z,19.44
2022-10-18T11:21:41.242Z,19.31
2022-10-18T11:24:28.021Z,19.13
2022-10-18T11:27:24.933Z,18.81
2022-10-18T11:30:38.712Z,18.44
2022-10-18T11:34:08.275Z,18.19
2022-10-18T11:37:28.530Z,17.81
2022-10-18T11:40:53.118Z,17.44
2022-10-18T11:44:02.983Z,17.38
2022-10-18T11:47:18.923Z,17.25
2022-10-18T11:50:26.854Z,17.13
2022-10-18T11:53:24.709Z,17.19
2022-10-18T11:56:32.354Z,17.00
2022-10-18T11:59:37.750Z,16.63
2022-10-18T12:03:04.519Z,16.50
2022-10-18T12:05:53.704Z,16.25
2022-10-18T12:08:47.795Z,16.19
2022-10-18T12:11:46.840Z,16.13
2022-10-18T12:14:45.225Z,15.94
2022-10-18T12:17:46.158Z,15.81
2022-10-18T12:20:45.741Z,15.81
2022-10-18T12:23:59.564Z,15.69
2022-10-18T12:26:50.184Z,15.63
2022-10-18T12:29:50.510Z,15.63
2022-10-18T12:32:38.511Z,15.63
2022-10-18T12:35:34.477Z,15.63
2022-10-18T12:38:36.570Z,15.44
2022-10-18T12:41:35.261Z,15.31
2022-10-18T12:44:34.344Z,15.38
2022-10-18T12:47:25.033Z,15.44
2022-10-18T12:50:29.547Z,15.50
2022-10-18T12:53:26.082Z,15.44
2022-10-18T12:56:27.347Z,15.38
2022-10-18T12:59:13.829Z,15.38
2022-10-18T13:01:59.996Z,15.38
2022-10-18T13:04:48.262Z,15.38
2022-10-18T13:07:40.403Z,15.38
2022-10-18T13:10:35.574Z,15.25
2022-10-18T13:13:40.609Z,15.31
2022-10-18T13:16:42.156Z,15.38
2022-10-18T13:19:58.269Z,15.38
2022-10-18T13:23:23.422Z,15.44
2022-10-18T13:26:17.730Z,15.44
2022-10-18T13:29:48.736Z,15.44
2022-10-18T13:32:57.370Z,15.38
2022-10-18T13:35:52.247Z,15.25
2022-10-18T13:38:55.077Z,15.19
2022-10-18T13:41:41.637Z,15.13
2022-10-18T13:44:37.929Z,15.06
2022-10-18T13:47:36.744Z,15.06
2022-10-18T13:50:37.742Z,15.00
2022-10-18T13:54:06.266Z,14.94
2022-10-18T13:58:00.762Z,14.81
2022-10-18T14:01:14.357Z,14.88
2022-10-18T14:04:00.674Z,14.88
2022-10-18T14:06:48.003Z,14.88
2022-10-18T14:09:56.121Z,14.75
2022-10-18T14:12:51.631Z,14.63
2022-10-18T14:15:42.875Z,14.50
2022-10-18T14:18:36.165Z,14.25
2022-10-18T14:21:33.054Z,14.19
2022-10-18T14:24:24.414Z,14.25
2022-10-18T14:27:24.376Z,14.19
2022-10-18T14:30:18.900Z,14.06
2022-10-18T14:33:05.180Z,13.94
2022-10-18T14:36:10.289Z,13.88
2022-10-18T14:39:03.782Z,13.88
2022-10-18T14:41:53.603Z,13.81
2022-10-18T14:44:40.272Z,13.69
2022-10-18T14:47:30.668Z,13.63
2022-10-18T14:50:30.476Z,13.56
2022-10-18T14:53:24.610Z,13.44
2022-10-18T14:56:25.183Z,13.38
2022-10-18T14:59:19.903Z,13.31
2022-10-18T15:02:20.609Z,13.19
2022-10-18T15:05:20.314Z,13.13
2022-10-18T15:08:08.972Z,13.06
2022-10-18T15:10:56.486Z,13.00
2022-10-18T15:13:53.153Z,12.88
2022-10-18T15:16:40.436Z,12.81
2022-10-18T15:19:41.664Z,12.75
2022-10-18T15:22:32.063Z,12.63
2022-10-18T15:25:35.271Z,12.56
2022-10-18T15:28:30.682Z,12.56
2022-10-18T15:31:24.795Z,12.50
2022-10-18T15:34:25.877Z,12.44
2022-10-18T15:37:26.915Z,12.38
2022-10-18T15:40:22.876Z,12.31
2022-10-18T15:43:39.196Z,12.25
2022-10-18T15:46:32.091Z,12.25
2022-10-18T15:49:24.299Z,12.19
2022-10-18T15:52:19.523Z,12.13
2022-10-18T15:55:30.703Z,12.06
2022-10-18T15:58:46.464Z,12.00
2022-10-18T16:01:44.044Z,11.94
2022-10-18T16:04:32.674Z,11.88
2022-10-18T16:07:18.967Z,11.81
2022-10-18T16:10:13.778Z,11.81
2022-10-18T16:13:00.186Z,11.75
2022-10-18T16:15:47.110Z,11.75
2022-10-18T16:18:33.376Z,11.69
2022-10-18T16:21:30.388Z,11.69
2022-10-18T16:24:17.095Z,11.69
2022-10-18T16:27:10.433Z,11.63
2022-10-18T16:29:57.455Z,11.69
2022-10-18T16:32:43.998Z,11.75
2022-10-18T16:35:30.268Z,11.69
2022-10-18T16:38:35.182Z,11.75
2022-10-18T16:41:23.108Z,11.88
2022-10-18T16:44:10.628Z,11.88
2022-10-18T16:46:56.978Z,11.88
2022-10-18T16:49:44.623Z,11.88
2022-10-18T16:52:31.284Z,11.88
2022-10-18T16:55:24.253Z,11.88
2022-10-18T16:58:17.282Z,11.81
2022-10-18T17:01:06.723Z,11.88
2022-10-18T17:03:55.401Z,11.88
2022-10-18T17:06:41.998Z,11.69
2022-10-18T17:09:28.601Z,11.56
2022-10-18T17:12:15.188Z,11.50
2022-10-18T17:15:01.551Z,11.38
2022-10-18T17:17:49.496Z,11.25
2022-10-18T17:20:35.698Z,11.19
2022-10-18T17:23:22.244Z,11.13
2022-10-18T17:26:28.539Z,11.06
2022-10-18T17:29:16.129Z,11.00
2022-10-18T17:32:03.324Z,10.88
2022-10-18T17:34:49.654Z,10.81
2022-10-18T17:37:37.873Z,10.75
2022-10-18T17:40:26.239Z,10.63
2022-10-18T17:43:13.165Z,10.63
2022-10-18T17:45:59.436Z,10.56
2022-10-18T17:48:46.203Z,10.56
2022-10-18T17:51:32.473Z,10.50
2022-10-18T17:54:18.749Z,10.50
2022-10-18T17:57:06.696Z,10.44
2022-10-18T17:59:54.786Z,10.44
2022-10-18T18:02:42.132Z,10.44
2022-10-18T18:05:35.575Z,10.50
2022-10-18T18:08:25.777Z,10.56
2022-10-18T18:11:14.963Z,10.63
2022-10-18T18:14:01.652Z,10.94
2022-10-18T18:16:48.191Z,10.94
2022-10-18T18:19:34.621Z,10.94
2022-10-18T18:22:21.047Z,11.00
2022-10-18T18:25:09.156Z,11.06
2022-10-18T18:27:55.522Z,11.19
2022-10-18T18:30:41.629Z,11.25
2022-10-18T18:33:28.144Z,11.38
2022-10-18T18:36:14.631Z,11.44
2022-10-18T18:39:01.200Z,11.44
2022-10-18T18:41:50.282Z,11.50
2022-10-18T18:44:39.276Z,11.56
2022-10-18T18:47:34.975Z,11.56
2022-10-18T18:50:21.086Z,11.56
2022-10-18T18:53:08.337Z,11.38
2022-10-18T18:56:04.230Z,11.25
2022-10-18T18:58:52.989Z,11.25
2022-10-18T19:01:41.589Z,11.13
2022-10-18T19:04:28.881Z,11.13
2022-10-18T19:07:16.131Z,11.25
2022-10-18T19:10:03.253Z,11.38
2022-10-18T19:12:49.881Z,11.44
2022-10-18T19:15:36.276Z,11.56
2022-10-18T19:18:23.962Z,11.63
2022-10-18T19:21:10.592Z,11.69
2022-10-18T19:23:58.356Z,11.75
2022-10-18T19:26:50.448Z,11.81
2022-10-18T19:29:39.315Z,11.81
2022-10-18T19:32:26.087Z,11.88
2022-10-18T19:35:12.385Z,11.88
2022-10-18T19:37:58.865Z,11.88
2022-10-18T19:40:45.101Z,11.88
2022-10-18T19:43:31.425Z,11.88
2022-10-18T19:46:18.165Z,11.94
2022-10-18T19:49:04.894Z,11.94
2022-10-18T19:51:51.858Z,11.94
2022-10-18T19:54:38.695Z,11.94
2022-10-18T19:57:25.907Z,11.94
2022-10-18T20:00:17.254Z,11.94
2022-10-18T20:03:05.323Z,11.94
2022-10-18T20:06:00.428Z,11.94
2022-10-18T20:08:47.661Z,12.00
2022-10-18T20:11:34.826Z,12.00
2022-10-18T20:14:22.899Z,12.00
2022-10-18T20:17:12.432Z,12.00
2022-10-18T20:19:58.685Z,12.06
2022-10-18T20:22:45.025Z,12.06
2022-10-18T20:25:31.628Z,12.06
2022-10-18T20:28:18.579Z,12.06
2022-10-18T20:31:09.706Z,12.06
2022-10-18T20:34:03.023Z,12.06
2022-10-18T20:36:49.597Z,11.94
2022-10-18T20:39:36.353Z,11.88
2022-10-18T20:42:22.596Z,11.88
2022-10-18T20:45:10.158Z,11.75
2022-10-18T20:47:56.777Z,11.75
2022-10-18T20:50:45.624Z,11.75
2022-10-18T20:53:33.672Z,11.69
2022-10-18T20:56:22.966Z,11.75
2022-10-18T20:59:10.341Z,11.81
2022-10-18T21:01:56.359Z,11.88
2022-10-18T21:04:42.858Z,12.00
2022-10-18T21:07:30.546Z,12.00
2022-10-18T21:10:17.450Z,12.06
2022-10-18T21:13:03.743Z,12.00
2022-10-18T21:15:57.577Z,11.94
2022-10-18T21:18:44.145Z,12.00
2022-10-18T21:21:31.247Z,12.00
2022-10-18T21:24:19.472Z,12.06
2022-10-18T21:27:06.030Z,12.00
2022-10-18T21:29:52.865Z,11.94
2022-10-18T21:32:39.432Z,11.94
2022-10-18T21:35:25.738Z,11.94
2022-10-18T21:38:12.201Z,12.00
2022-10-18T21:40:58.577Z,11.94
2022-10-18T21:43:51.128Z,12.00
2022-10-18T21:46:38.980Z,11.94
2022-10-18T21:49:27.537Z,12.00
2022-10-18T21:52:13.493Z,12.06
2022-10-18T21:54:59.951Z,12.13
2022-10-18T21:57:49.997Z,12.13
2022-10-18T22:00:40.127Z,12.13
2022-10-18T22:03:30.582Z,12.13
2022-10-18T22:06:23.743Z,12.19
2022-10-18T22:09:13.211Z,12.19
2022-10-18T22:12:00.365Z,12.13
2022-10-18T22:14:47.407Z,12.13
2022-10-18T22:17:33.873Z,12.13
2022-10-18T22:20:20.487Z,12.13
2022-10-18T22:23:06.988Z,12.13
2022-10-18T22:25:53.611Z,12.06
2022-10-18T22:28:42.235Z,12.00
2022-10-18T22:31:32.405Z,12.00
2022-10-18T22:34:28.229Z,12.00
2022-10-18T22:37:14.727Z,12.00
2022-10-18T22:40:00.779Z,12.06
2022-10-18T22:42:47.043Z,12.06
2022-10-18T22:45:33.491Z,12.06
2022-10-18T22:48:20.182Z,11.94
2022-10-18T22:51:08.074Z,11.94
2022-10-18T22:53:54.202Z,11.75
2022-10-18T22:56:40.643Z,11.50
2022-10-18T22:59:26.729Z,11.31
2022-10-18T23:02:13.313Z,11.31
2022-10-18T23:04:59.958Z,11.25
2022-10-18T23:07:49.344Z,11.25
2022-10-18T23:10:42.793Z,11.25
2022-10-18T23:13:31.919Z,11.19
2022-10-18T23:16:20.139Z,11.19
2022-10-18T23:19:06.270Z,11.19
2022-10-18T23:21:52.494Z,11.13
2022-10-18T23:24:38.911Z,11.13
2022-10-18T23:27:25.116Z,11.25
2022-10-18T23:30:11.804Z,11.25
2022-10-18T23:32:58.191Z,11.31
2022-10-18T23:35:44.878Z,11.25
2022-10-18T23:38:31.728Z,11.13
2022-10-18T23:41:18.064Z,10.94
2022-10-18T23:44:04.815Z,11.06
2022-10-18T23:46:51.062Z,11.25
2022-10-18T23:49:37.430Z,11.31
2022-10-18T23:52:24.409Z,11.38
2022-10-18T23:55:10.465Z,11.38
2022-10-18T23:57:56.619Z,11.44
